createdAt,value
2023-03-28T00:00:42.449Z,0.00
2023-03-28T00:01:42.449Z,0.00
2023-03-28T00:02:42.534Z,0.00
2023-03-28T00:03:42.692Z,0.00
2023-03-28T00:04:42.397Z,0.00
2023-03-28T00:05:42.508Z,0.00
2023-03-28T00:06:42.404Z,0.00
2023-03-28T00:07:42.372Z,0.00
2023-03-28T00:08:42.479Z,0.00
2023-03-28T00:09:42.342Z,0.00
2023-03-28T00:10:42.456Z,0.00
2023-03-28T00:11:42.410Z,0.00
2023-03-28T00:12:42.329Z,0.00
2023-03-28T00:13:42.297Z,0.00
2023-03-28T00:14:42.315Z,0.00
2023-03-28T00:15:42.364Z,0.00
2023-03-28T00:16:42.265Z,0.00
2023-03-28T00:17:42.345Z,0.00
2023-03-28T00:18:42.281Z,0.00
2023-03-28T00:19:42.249Z,0.00
2023-03-28T00:20:42.221Z,0.00
2023-03-28T00:21:42.207Z,0.00
2023-03-28T00:22:42.230Z,0.00
2023-03-28T00:23:42.212Z,0.00
2023-03-28T00:24:42.253Z,0.00
2023-03-28T00:25:42.299Z,0.00
2023-03-28T00:26:42.160Z,0.00
2023-03-28T00:27:42.137Z,0.00
2023-03-28T00:28:42.130Z,0.00
2023-03-28T00:29:42.145Z,0.00
2023-03-28T00:30:42.164Z,0.00
2023-03-28T00:31:42.165Z,0.00
2023-03-28T00:32:42.142Z,0.00
2023-03-28T00:33:42.085Z,0.00
2023-03-28T00:34:42.082Z,0.00
2023-03-28T00:35:42.166Z,0.00
2023-03-28T00:36:42.047Z,0.00
2023-03-28T00:37:42.044Z,0.00
2023-03-28T00:38:42.036Z,0.00
2023-03-28T00:39:42.017Z,0.00
2023-03-28T00:40:42.002Z,0.00
2023-03-28T00:41:42.015Z,0.00
2023-03-28T00:42:41.974Z,0.00
2023-03-28T00:43:42.002Z,0.00
2023-03-28T00:44:42.029Z,0.00
2023-03-28T00:45:41.948Z,0.00
2023-03-28T00:46:41.968Z,0.00
2023-03-28T00:47:42.015Z,0.00
2023-03-28T00:48:41.917Z,0.00
2023-03-28T00:49:41.903Z,0.00
2023-03-28T00:50:41.898Z,0.00
2023-03-28T00:51:41.883Z,0.00
2023-03-28T00:52:41.868Z,0.00
2023-03-28T00:53:41.885Z,0.00
2023-03-28T00:54:41.853Z,0.00
2023-03-28T00:55:41.839Z,0.00
2023-03-28T00:56:41.854Z,0.00
2023-03-28T00:57:41.834Z,0.00
2023-03-28T00:58:41.804Z,0.00
2023-03-28T00:59:41.809Z,0.00
2023-03-28T01:00:41.771Z,0.00
2023-03-28T01:01:41.803Z,0.00
2023-03-28T01:02:41.815Z,0.00
2023-03-28T01:03:41.802Z,0.00
2023-03-28T01:04:41.730Z,0.00
2023-03-28T01:05:41.759Z,0.00
2023-03-28T01:06:41.710Z,0.00
2023-03-28T01:07:41.705Z,0.00
2023-03-28T01:08:41.708Z,0.00
2023-03-28T01:09:41.678Z,0.00
2023-03-28T01:10:41.681Z,0.00
2023-03-28T01:11:41.678Z,0.00
2023-03-28T01:12:41.657Z,0.00
2023-03-28T01:13:41.629Z,0.00
2023-03-28T01:14:41.644Z,0.00
2023-03-28T01:15:41.687Z,0.00
2023-03-28T01:16:41.640Z,0.00
2023-03-28T01:17:41.669Z,0.00
2023-03-28T01:18:41.618Z,0.00
2023-03-28T01:19:41.560Z,0.00
2023-03-28T01:20:41.545Z,0.00
2023-03-28T01:21:41.560Z,0.00
2023-03-28T01:22:41.531Z,0.00
2023-03-28T01:23:41.563Z,0.00
2023-03-28T01:24:41.537Z,0.00
2023-03-28T01:25:41.511Z,0.00
2023-03-28T01:26:41.489Z,0.00
2023-03-28T01:27:41.487Z,0.00
2023-03-28T01:28:41.464Z,0.00
2023-03-28T01:29:41.480Z,0.00
2023-03-28T01:30:41.447Z,0.00
2023-03-28T01:31:41.458Z,0.00
2023-03-28T01:32:41.443Z,0.00
2023-03-28T01:33:41.413Z,0.00
2023-03-28T01:34:41.414Z,0.00
2023-03-28T01:35:41.462Z,0.00
2023-03-28T01:36:41.372Z,0.00
2023-03-28T01:37:41.391Z,0.00
2023-03-28T01:38:41.351Z,0.00
2023-03-28T01:39:41.343Z,0.00
2023-03-28T01:40:41.363Z,0.00
2023-03-28T01:41:41.347Z,0.00
2023-03-28T01:42:41.314Z,0.00
2023-03-28T01:43:41.333Z,0.00
2023-03-28T01:44:41.287Z,0.00
2023-03-28T01:45:41.304Z,0.00
2023-03-28T01:46:41.263Z,0.00
2023-03-28T01:47:41.330Z,0.00
2023-03-28T01:48:41.242Z,0.00
2023-03-28T01:49:41.240Z,0.00
2023-03-28T01:50:41.223Z,0.00
2023-03-28T01:51:41.210Z,0.00
2023-03-28T01:52:41.208Z,0.00
2023-03-28T01:53:41.236Z,0.00
2023-03-28T01:54:41.208Z,0.00
2023-03-28T01:55:41.740Z,0.00
2023-03-28T01:56:41.207Z,0.00
2023-03-28T01:57:41.219Z,0.00
2023-03-28T01:58:41.132Z,0.00
2023-03-28T01:59:41.179Z,0.00
2023-03-28T02:00:41.110Z,0.00
2023-03-28T02:01:41.182Z,0.00
2023-03-28T02:02:41.166Z,0.00
2023-03-28T02:03:41.073Z,0.00
2023-03-28T02:04:41.071Z,0.00
2023-03-28T02:05:41.078Z,0.00
2023-03-28T02:06:41.062Z,0.00
2023-03-28T02:07:41.029Z,0.00
2023-03-28T02:08:41.018Z,0.00
2023-03-28T02:09:41.019Z,0.00
2023-03-28T02:10:41.024Z,0.00
2023-03-28T02:11:41.026Z,0.00
2023-03-28T02:12:40.984Z,0.00
2023-03-28T02:13:40.979Z,0.00
2023-03-28T02:14:40.959Z,0.00
2023-03-28T02:15:40.975Z,0.00
2023-03-28T02:16:40.988Z,0.00
2023-03-28T02:17:40.992Z,0.00
2023-03-28T02:18:40.915Z,0.00
2023-03-28T02:19:40.939Z,0.00
2023-03-28T02:20:40.906Z,0.00
2023-03-28T02:21:40.908Z,0.00
2023-03-28T02:22:40.876Z,0.00
2023-03-28T02:23:40.896Z,0.00
2023-03-28T02:24:40.849Z,0.00
2023-03-28T02:25:40.852Z,0.00
2023-03-28T02:26:40.847Z,0.00
2023-03-28T02:27:40.829Z,0.00
2023-03-28T02:28:40.809Z,0.00
2023-03-28T02:29:40.805Z,0.00
2023-03-28T02:30:40.784Z,0.00
2023-03-28T02:31:40.803Z,0.00
2023-03-28T02:32:40.801Z,0.00
2023-03-28T02:33:40.766Z,0.00
2023-03-28T02:34:40.745Z,0.00
2023-03-28T02:35:40.764Z,0.00
2023-03-28T02:36:40.735Z,0.00
2023-03-28T02:37:40.763Z,0.00
2023-03-28T02:38:40.699Z,0.00
2023-03-28T02:39:40.745Z,0.00
2023-03-28T02:40:40.706Z,0.00
2023-03-28T02:41:40.669Z,0.00
2023-03-28T02:42:40.675Z,0.00
2023-03-28T02:43:40.645Z,0.00
2023-03-28T02:44:40.649Z,0.00
2023-03-28T02:45:40.733Z,0.00
2023-03-28T02:46:40.655Z,0.00
2023-03-28T02:47:40.635Z,0.00
2023-03-28T02:48:40.607Z,0.00
2023-03-28T02:49:49.903Z,0.00
2023-03-28T02:50:40.609Z,0.00
2023-03-28T02:51:40.659Z,0.00
2023-03-28T02:52:40.583Z,0.00
2023-03-28T02:53:40.544Z,0.00
2023-03-28T02:54:40.530Z,0.00
2023-03-28T02:55:40.521Z,0.00
2023-03-28T02:56:40.526Z,0.00
2023-03-28T02:57:40.511Z,0.00
2023-03-28T02:58:40.495Z,0.00
2023-03-28T02:59:40.476Z,0.00
2023-03-28T03:00:40.459Z,0.00
2023-03-28T03:01:40.464Z,0.00
2023-03-28T03:02:40.507Z,0.00
2023-03-28T03:03:40.501Z,0.00
2023-03-28T03:04:40.420Z,0.00
2023-03-28T03:05:40.418Z,0.00
2023-03-28T03:06:40.403Z,0.00
2023-03-28T03:07:40.414Z,0.00
2023-03-28T03:08:40.376Z,0.00
2023-03-28T03:09:40.366Z,0.00
2023-03-28T03:10:40.353Z,0.00
2023-03-28T03:11:40.344Z,0.00
2023-03-28T03:12:40.347Z,0.00
2023-03-28T03:13:40.342Z,0.00
2023-03-28T03:14:40.351Z,0.00
2023-03-28T03:15:40.343Z,0.00
2023-03-28T03:16:40.298Z,0.00
2023-03-28T03:17:40.312Z,0.00
2023-03-28T03:18:40.268Z,0.00
2023-03-28T03:19:43.179Z,0.00
2023-03-28T03:20:40.252Z,0.00
2023-03-28T03:21:40.241Z,0.00
2023-03-28T03:22:40.246Z,0.00
2023-03-28T03:23:40.213Z,0.00
2023-03-28T03:24:40.204Z,0.00
2023-03-28T03:25:40.179Z,0.00
2023-03-28T03:26:40.188Z,0.00
2023-03-28T03:27:40.181Z,0.00
2023-03-28T03:28:40.151Z,0.00
2023-03-28T03:29:40.145Z,0.00
2023-03-28T03:30:40.118Z,0.00
2023-03-28T03:31:40.132Z,0.00
2023-03-28T03:32:40.151Z,0.00
2023-03-28T03:33:40.097Z,0.00
2023-03-28T03:34:40.087Z,0.00
2023-03-28T03:35:40.091Z,0.00
2023-03-28T03:36:40.063Z,0.00
2023-03-28T03:37:40.067Z,0.00
2023-03-28T03:38:40.049Z,0.00
2023-03-28T03:39:40.031Z,0.00
2023-03-28T03:40:40.027Z,0.00
2023-03-28T03:41:40.029Z,0.00
2023-03-28T03:42:40.006Z,0.00
2023-03-28T03:43:39.992Z,0.00
2023-03-28T03:44:39.977Z,0.00
2023-03-28T03:45:39.990Z,0.00
2023-03-28T03:46:40.041Z,0.00
2023-03-28T03:47:39.996Z,0.00
2023-03-28T03:48:49.060Z,0.00
2023-03-28T03:49:39.915Z,0.00
2023-03-28T03:50:39.909Z,0.00
2023-03-28T03:51:39.900Z,0.00
2023-03-28T03:52:39.903Z,0.00
2023-03-28T03:53:39.869Z,0.00
2023-03-28T03:54:39.874Z,0.00
2023-03-28T03:55:39.855Z,0.00
2023-03-28T03:56:39.896Z,0.00
2023-03-28T03:57:39.850Z,0.00
2023-03-28T03:58:39.820Z,0.00
2023-03-28T03:59:39.806Z,0.00
2023-03-28T04:00:39.802Z,0.00
2023-03-28T04:01:39.815Z,0.00
2023-03-28T04:02:39.881Z,0.00
2023-03-28T04:03:46.349Z,0.00
2023-03-28T04:04:39.753Z,0.00
2023-03-28T04:05:39.735Z,0.00
2023-03-28T04:06:39.740Z,0.00
2023-03-28T04:07:39.734Z,0.00
2023-03-28T04:08:39.726Z,0.00
2023-03-28T04:09:39.709Z,0.00
2023-03-28T04:10:39.683Z,0.00
2023-03-28T04:11:39.691Z,0.00
2023-03-28T04:12:39.695Z,0.00
2023-03-28T04:13:39.664Z,0.00
2023-03-28T04:14:39.645Z,0.00
2023-03-28T04:15:39.704Z,0.00
2023-03-28T04:16:40.696Z,0.00
2023-03-28T04:17:39.673Z,0.00
2023-03-28T04:18:39.611Z,0.00
2023-03-28T04:19:39.604Z,0.00
2023-03-28T04:20:39.597Z,0.00
2023-03-28T04:21:39.573Z,0.00
2023-03-28T04:22:45.446Z,0.00
2023-03-28T04:23:39.565Z,0.00
2023-03-28T04:24:39.533Z,0.00
2023-03-28T04:25:39.525Z,0.00
2023-03-28T04:26:39.528Z,0.00
2023-03-28T04:27:39.537Z,0.00
2023-03-28T04:28:39.501Z,0.00
2023-03-28T04:29:39.519Z,0.00
2023-03-28T04:30:39.490Z,0.00
2023-03-28T04:31:39.567Z,0.00
2023-03-28T04:32:39.488Z,0.00
2023-03-28T04:33:39.443Z,0.00
2023-03-28T04:34:39.445Z,0.00
2023-03-28T04:35:39.465Z,0.00
2023-03-28T04:36:39.440Z,4.00
2023-03-28T04:37:39.434Z,0.00
2023-03-28T04:38:39.389Z,0.00
2023-03-28T04:39:39.390Z,4.00
2023-03-28T04:40:39.371Z,0.00
2023-03-28T04:41:39.399Z,4.00
2023-03-28T04:42:39.387Z,4.00
2023-03-28T04:43:39.351Z,4.00
2023-03-28T04:44:39.319Z,4.00
2023-03-28T04:45:39.358Z,4.00
2023-03-28T04:46:39.299Z,4.00
2023-03-28T04:47:39.362Z,8.00
2023-03-28T04:48:39.285Z,8.00
2023-03-28T04:49:39.280Z,12.00
2023-03-28T04:50:39.274Z,12.00
2023-03-28T04:51:39.252Z,20.00
2023-03-28T04:52:39.270Z,20.00
2023-03-28T04:53:39.224Z,24.00
2023-03-28T04:54:39.239Z,24.00
2023-03-28T04:55:39.213Z,32.00
2023-03-28T04:56:39.221Z,36.00
2023-03-28T04:57:39.206Z,40.00
2023-03-28T04:58:39.180Z,48.00
2023-03-28T04:59:39.175Z,52.00
2023-03-28T05:00:39.159Z,56.00
2023-03-28T05:01:39.228Z,68.00
2023-03-28T05:02:39.223Z,72.00
2023-03-28T05:03:39.137Z,84.00
2023-03-28T05:04:39.109Z,88.00
2023-03-28T05:05:39.089Z,100.00
2023-03-28T05:06:39.132Z,108.00
2023-03-28T05:07:39.115Z,120.00
2023-03-28T05:08:39.665Z,132.00
2023-03-28T05:09:39.041Z,144.00
2023-03-28T05:10:39.052Z,160.00
2023-03-28T05:11:39.032Z,168.00
2023-03-28T05:12:39.043Z,184.00
2023-03-28T05:13:39.006Z,196.00
2023-03-28T05:14:38.996Z,208.00
2023-03-28T05:15:39.017Z,224.00
2023-03-28T05:16:39.079Z,240.00
2023-03-28T05:17:39.037Z,256.00
2023-03-28T05:18:38.952Z,272.00
2023-03-28T05:19:38.953Z,288.00
2023-03-28T05:20:38.933Z,300.00
2023-03-28T05:21:38.918Z,316.00
2023-03-28T05:22:38.927Z,336.00
2023-03-28T05:23:38.899Z,352.00
2023-03-28T05:24:38.878Z,372.00
2023-03-28T05:25:38.891Z,388.00
2023-03-28T05:26:38.882Z,408.00
2023-03-28T05:27:38.857Z,428.00
2023-03-28T05:28:38.872Z,452.00
2023-03-28T05:29:38.831Z,468.00
2023-03-28T05:30:38.819Z,484.00
2023-03-28T05:31:38.866Z,500.00
2023-03-28T05:32:38.891Z,516.00
2023-03-28T05:33:38.811Z,532.00
2023-03-28T05:34:38.768Z,548.00
2023-03-28T05:35:38.797Z,568.00
2023-03-28T05:36:38.758Z,584.00
2023-03-28T05:37:41.221Z,596.00
2023-03-28T05:38:38.751Z,612.00
2023-03-28T05:39:38.721Z,632.00
2023-03-28T05:40:38.721Z,644.00
2023-03-28T05:41:38.694Z,660.00
2023-03-28T05:42:38.690Z,672.00
2023-03-28T05:43:38.693Z,688.00
2023-03-28T05:44:38.666Z,696.00
2023-03-28T05:45:38.705Z,716.00
2023-03-28T05:46:38.641Z,728.00
2023-03-28T05:47:38.664Z,744.00
2023-03-28T05:48:38.680Z,752.00
2023-03-28T05:49:38.612Z,772.00
2023-03-28T05:50:38.620Z,784.00
2023-03-28T05:51:38.587Z,800.00
2023-03-28T05:52:38.581Z,812.00
2023-03-28T05:53:38.608Z,824.00
2023-03-28T05:54:38.555Z,836.00
2023-03-28T05:55:38.545Z,864.00
2023-03-28T05:56:38.561Z,892.00
2023-03-28T05:57:38.543Z,920.00
2023-03-28T05:58:38.533Z,952.00
2023-03-28T05:59:38.519Z,976.00
2023-03-28T06:00:38.506Z,984.00
2023-03-28T06:01:38.491Z,1004.00
2023-03-28T06:02:38.552Z,1036.00
2023-03-28T06:03:38.501Z,1080.00
2023-03-28T06:04:38.514Z,1088.00
2023-03-28T06:05:38.453Z,1068.00
2023-03-28T06:06:38.427Z,1088.00
2023-03-28T06:07:42.634Z,1120.00
2023-03-28T06:08:38.445Z,1100.00
2023-03-28T06:09:38.385Z,1072.00
2023-03-28T06:10:38.380Z,1068.00
2023-03-28T06:11:38.376Z,1064.00
2023-03-28T06:12:38.366Z,1072.00
2023-03-28T06:13:38.373Z,1080.00
2023-03-28T06:14:38.340Z,1120.00
2023-03-28T06:15:38.323Z,1240.00
2023-03-28T06:16:38.389Z,1396.00
2023-03-28T06:17:38.353Z,1512.00
2023-03-28T06:18:38.345Z,1624.00
2023-03-28T06:19:38.337Z,1640.00
2023-03-28T06:20:38.276Z,1660.00
2023-03-28T06:21:38.260Z,1720.00
2023-03-28T06:22:38.262Z,1868.00
2023-03-28T06:23:38.261Z,2080.00
2023-03-28T06:24:38.226Z,2308.00
2023-03-28T06:25:38.249Z,2328.00
2023-03-28T06:26:38.208Z,2080.00
2023-03-28T06:27:38.208Z,1756.00
2023-03-28T06:28:38.204Z,1544.00
2023-03-28T06:29:38.169Z,1412.00
2023-03-28T06:30:38.178Z,1316.00
2023-03-28T06:31:38.185Z,1232.00
2023-03-28T06:32:38.238Z,1148.00
2023-03-28T06:33:38.165Z,1060.00
2023-03-28T06:34:38.120Z,988.00
2023-03-28T06:35:38.155Z,948.00
2023-03-28T06:36:38.085Z,880.00
2023-03-28T06:37:38.116Z,768.00
2023-03-28T06:38:38.217Z,752.00
2023-03-28T06:39:38.082Z,852.00
2023-03-28T06:40:38.057Z,948.00
2023-03-28T06:41:38.049Z,988.00
2023-03-28T06:42:38.027Z,1188.00
2023-03-28T06:43:38.086Z,1540.00
2023-03-28T06:44:38.013Z,1980.00
2023-03-28T06:45:38.022Z,2268.00
2023-03-28T06:46:38.023Z,2424.00
2023-03-28T06:47:38.063Z,2372.00
2023-03-28T06:48:37.992Z,2580.00
2023-03-28T06:49:37.956Z,2784.00
2023-03-28T06:50:37.965Z,2616.00
2023-03-28T06:51:37.932Z,2632.00
2023-03-28T06:52:37.946Z,2540.00
2023-03-28T06:53:37.934Z,2480.00
2023-03-28T06:54:38.134Z,2636.00
2023-03-28T06:55:37.895Z,2368.00
2023-03-28T06:56:37.948Z,1980.00
2023-03-28T06:57:37.894Z,2080.00
2023-03-28T06:58:37.892Z,2232.00
2023-03-28T06:59:37.842Z,2100.00
2023-03-28T07:00:37.840Z,2076.00
2023-03-28T07:01:37.955Z,2088.00
2023-03-28T07:02:37.966Z,2284.00
2023-03-28T07:03:37.949Z,3736.00
2023-03-28T07:04:37.789Z,3984.00
2023-03-28T07:05:37.811Z,2268.00
2023-03-28T07:06:37.807Z,2352.00
2023-03-28T07:07:37.765Z,2304.00
2023-03-28T07:08:37.804Z,2316.00
2023-03-28T07:09:37.763Z,2300.00
2023-03-28T07:10:37.727Z,1992.00
2023-03-28T07:11:37.743Z,2008.00
2023-03-28T07:12:37.710Z,2044.00
2023-03-28T07:13:37.723Z,2088.00
2023-03-28T07:14:37.691Z,1996.00
2023-03-28T07:15:37.703Z,1924.00
2023-03-28T07:16:37.721Z,1964.00
2023-03-28T07:17:37.742Z,1904.00
2023-03-28T07:18:37.650Z,2048.00
2023-03-28T07:19:37.626Z,2028.00
2023-03-28T07:20:37.630Z,2008.00
2023-03-28T07:21:37.655Z,2028.00
2023-03-28T07:22:37.599Z,1956.00
2023-03-28T07:23:37.607Z,1856.00
2023-03-28T07:24:37.573Z,1764.00
2023-03-28T07:25:37.587Z,1732.00
2023-03-28T07:26:37.557Z,1732.00
2023-03-28T07:27:37.545Z,1728.00
2023-03-28T07:28:37.563Z,1732.00
2023-03-28T07:29:37.512Z,1748.00
2023-03-28T07:30:37.507Z,1728.00
2023-03-28T07:31:37.567Z,1768.00
2023-03-28T07:32:50.375Z,1776.00
2023-03-28T07:33:38.186Z,1788.00
2023-03-28T07:34:37.464Z,1804.00
2023-03-28T07:35:37.519Z,1816.00
2023-03-28T07:36:37.471Z,1832.00
2023-03-28T07:37:37.429Z,1860.00
2023-03-28T07:38:37.468Z,1856.00
2023-03-28T07:39:37.410Z,1884.00
2023-03-28T07:40:37.409Z,1904.00
2023-03-28T07:41:37.384Z,1912.00
2023-03-28T07:42:37.380Z,1920.00
2023-03-28T07:43:37.384Z,1916.00
2023-03-28T07:44:37.993Z,1892.00
2023-03-28T07:45:37.360Z,1864.00
2023-03-28T07:46:37.359Z,1828.00
2023-03-28T07:47:37.350Z,1808.00
2023-03-28T07:48:37.323Z,1780.00
2023-03-28T07:49:37.291Z,1752.00
2023-03-28T07:50:37.304Z,1732.00
2023-03-28T07:51:37.291Z,1712.00
2023-03-28T07:52:37.255Z,1696.00
2023-03-28T07:53:37.277Z,1692.00
2023-03-28T07:54:37.295Z,1688.00
2023-03-28T07:55:48.387Z,1688.00
2023-03-28T07:56:37.347Z,1684.00
2023-03-28T07:57:37.222Z,1688.00
2023-03-28T07:58:37.229Z,1700.00
2023-03-28T07:59:37.192Z,1712.00
2023-03-28T08:00:37.189Z,1720.00
2023-03-28T08:01:37.173Z,1720.00
2023-03-28T08:02:37.248Z,1728.00
2023-03-28T08:03:37.212Z,1748.00
2023-03-28T08:04:37.124Z,1756.00
2023-03-28T08:05:37.171Z,1764.00
2023-03-28T08:06:37.122Z,1776.00
2023-03-28T08:07:37.105Z,1800.00
2023-03-28T08:08:37.107Z,1844.00
2023-03-28T08:09:37.101Z,1896.00
2023-03-28T08:10:37.181Z,1924.00
2023-03-28T08:11:37.062Z,1980.00
2023-03-28T08:12:37.071Z,2020.00
2023-03-28T08:13:37.100Z,2068.00
2023-03-28T08:14:37.023Z,2120.00
2023-03-28T08:15:37.082Z,2160.00
2023-03-28T08:16:37.027Z,2220.00
2023-03-28T08:17:37.007Z,2300.00
2023-03-28T08:18:37.010Z,2364.00
2023-03-28T08:19:36.963Z,2472.00
2023-03-28T08:20:36.994Z,2568.00
2023-03-28T08:21:36.995Z,2660.00
2023-03-28T08:22:36.963Z,2768.00
2023-03-28T08:23:36.954Z,2644.00
2023-03-28T08:24:36.971Z,3108.00
2023-03-28T08:25:36.928Z,3760.00
2023-03-28T08:26:36.923Z,4020.00
2023-03-28T08:27:36.927Z,4456.00
2023-03-28T08:28:37.026Z,4636.00
2023-03-28T08:29:36.870Z,5512.00
2023-03-28T08:30:36.868Z,5568.00
2023-03-28T08:31:36.854Z,4416.00
2023-03-28T08:32:36.895Z,3820.00
2023-03-28T08:33:36.924Z,4120.00
2023-03-28T08:34:36.871Z,4036.00
2023-03-28T08:35:36.881Z,4052.00
2023-03-28T08:36:36.803Z,4776.00
2023-03-28T08:37:36.813Z,3372.00
2023-03-28T08:38:36.789Z,2712.00
2023-03-28T08:39:36.800Z,2732.00
2023-03-28T08:40:36.747Z,4296.00
2023-03-28T08:41:36.733Z,4288.00
2023-03-28T08:42:36.722Z,3688.00
2023-03-28T08:43:36.759Z,3588.00
2023-03-28T08:44:36.692Z,3996.00
2023-03-28T08:45:36.693Z,6464.00
2023-03-28T08:46:36.744Z,7016.00
2023-03-28T08:47:36.732Z,6840.00
2023-03-28T08:48:36.671Z,5796.00
2023-03-28T08:49:36.667Z,7084.00
2023-03-28T08:50:36.629Z,6368.00
2023-03-28T08:51:36.634Z,4276.00
2023-03-28T08:52:36.614Z,4128.00
2023-03-28T08:53:36.618Z,3940.00
2023-03-28T08:54:36.615Z,3952.00
2023-03-28T08:55:36.609Z,3732.00
2023-03-28T08:56:36.603Z,3292.00
2023-03-28T08:57:36.560Z,2624.00
2023-03-28T08:58:36.554Z,2024.00
2023-03-28T08:59:36.529Z,1940.00
2023-03-28T09:00:36.515Z,2172.00
2023-03-28T09:01:36.601Z,2344.00
2023-03-28T09:02:36.640Z,2428.00
2023-03-28T09:03:36.606Z,2716.00
2023-03-28T09:04:36.492Z,3296.00
2023-03-28T09:05:36.463Z,3732.00
2023-03-28T09:06:36.499Z,4024.00
2023-03-28T09:07:36.430Z,4108.00
2023-03-28T09:08:36.591Z,4248.00
2023-03-28T09:09:36.425Z,3976.00
2023-03-28T09:10:36.406Z,3648.00
2023-03-28T09:11:36.389Z,3612.00
2023-03-28T09:12:36.401Z,2952.00
2023-03-28T09:13:36.400Z,2540.00
2023-03-28T09:14:36.350Z,2228.00
2023-03-28T09:15:36.356Z,2080.00
2023-03-28T09:16:36.380Z,2076.00
2023-03-28T09:17:36.346Z,2344.00
2023-03-28T09:18:36.358Z,2896.00
2023-03-28T09:19:47.260Z,3412.00
2023-03-28T09:20:36.318Z,3260.00
2023-03-28T09:21:36.291Z,3020.00
2023-03-28T09:22:36.295Z,2872.00
2023-03-28T09:23:36.276Z,2480.00
2023-03-28T09:24:36.272Z,2244.00
2023-03-28T09:25:36.238Z,2292.00
2023-03-28T09:26:36.255Z,2000.00
2023-03-28T09:27:36.215Z,1892.00
2023-03-28T09:28:36.235Z,1836.00
2023-03-28T09:29:36.198Z,1772.00
2023-03-28T09:30:36.174Z,1884.00
2023-03-28T09:31:36.220Z,3124.00
2023-03-28T09:32:36.186Z,3324.00
2023-03-28T09:33:36.165Z,3588.00
2023-03-28T09:34:36.152Z,3788.00
2023-03-28T09:35:36.194Z,3976.00
2023-03-28T09:36:47.672Z,4272.00
2023-03-28T09:37:36.101Z,4704.00
2023-03-28T09:38:36.110Z,5184.00
2023-03-28T09:39:36.079Z,5700.00
2023-03-28T09:40:36.065Z,6300.00
2023-03-28T09:41:36.065Z,6624.00
2023-03-28T09:42:36.056Z,7020.00
2023-03-28T09:43:36.055Z,7308.00
2023-03-28T09:44:47.162Z,7388.00
2023-03-28T09:45:36.061Z,7404.00
2023-03-28T09:46:36.024Z,5772.00
2023-03-28T09:47:36.146Z,5104.00
2023-03-28T09:48:36.235Z,5028.00
2023-03-28T09:49:36.010Z,5064.00
2023-03-28T09:50:36.026Z,4840.00
2023-03-28T09:51:36.051Z,4508.00
2023-03-28T09:52:36.029Z,4024.00
2023-03-28T09:53:36.018Z,3692.00
2023-03-28T09:54:35.940Z,3624.00
2023-03-28T09:55:35.929Z,3680.00
2023-03-28T09:56:35.960Z,3520.00
2023-03-28T09:57:35.887Z,3308.00
2023-03-28T09:58:35.904Z,3052.00
2023-03-28T09:59:35.906Z,3000.00
2023-03-28T10:00:35.889Z,2960.00
2023-03-28T10:01:35.912Z,2936.00
2023-03-28T10:02:35.875Z,2976.00
2023-03-28T10:03:35.832Z,3244.00
2023-03-28T10:04:35.886Z,3852.00
2023-03-28T10:05:35.797Z,4720.00
2023-03-28T10:06:35.794Z,5396.00
2023-03-28T10:07:35.803Z,5616.00
2023-03-28T10:08:35.756Z,5616.00
2023-03-28T10:09:35.792Z,5636.00
2023-03-28T10:10:35.763Z,5672.00
2023-03-28T10:11:35.763Z,5524.00
2023-03-28T10:12:35.714Z,5308.00
2023-03-28T10:13:35.712Z,4916.00
2023-03-28T10:14:35.738Z,4472.00
2023-03-28T10:15:35.874Z,4096.00
2023-03-28T10:16:35.706Z,3924.00
2023-03-28T10:17:36.811Z,3840.00
2023-03-28T10:18:35.666Z,3816.00
2023-03-28T10:19:35.690Z,3916.00
2023-03-28T10:20:35.645Z,3904.00
2023-03-28T10:21:35.651Z,3700.00
2023-03-28T10:22:35.662Z,3376.00
2023-03-28T10:23:35.611Z,3120.00
2023-03-28T10:24:35.633Z,2936.00
2023-03-28T10:25:42.122Z,2820.00
2023-03-28T10:26:35.558Z,2776.00
2023-03-28T10:27:35.582Z,2848.00
2023-03-28T10:28:35.530Z,2836.00
2023-03-28T10:29:35.554Z,2700.00
2023-03-28T10:30:35.521Z,2592.00
2023-03-28T10:31:35.553Z,2432.00
2023-03-28T10:32:35.516Z,2372.00
2023-03-28T10:33:35.507Z,2476.00
2023-03-28T10:34:35.481Z,2636.00
2023-03-28T10:35:35.456Z,2688.00
2023-03-28T10:36:35.453Z,2652.00
2023-03-28T10:37:35.441Z,2632.00
2023-03-28T10:38:35.426Z,2656.00
2023-03-28T10:39:35.425Z,2652.00
2023-03-28T10:40:35.483Z,2672.00
2023-03-28T10:41:35.385Z,2664.00
2023-03-28T10:42:35.388Z,2636.00
2023-03-28T10:43:35.376Z,2560.00
2023-03-28T10:44:35.394Z,2452.00
2023-03-28T10:45:35.345Z,2404.00
2023-03-28T10:46:35.383Z,2372.00
2023-03-28T10:47:35.341Z,2480.00
2023-03-28T10:48:35.311Z,2636.00
2023-03-28T10:49:35.328Z,2704.00
2023-03-28T10:50:36.764Z,2864.00
2023-03-28T10:51:35.302Z,3308.00
2023-03-28T10:52:35.261Z,3912.00
2023-03-28T10:53:35.260Z,4200.00
2023-03-28T10:54:35.267Z,4248.00
2023-03-28T10:55:35.241Z,4396.00
2023-03-28T10:56:35.350Z,4568.00
2023-03-28T10:57:35.213Z,4512.00
2023-03-28T10:58:35.197Z,4308.00
2023-03-28T10:59:35.216Z,4132.00
2023-03-28T11:00:35.181Z,4052.00
2023-03-28T11:01:35.201Z,4152.00
2023-03-28T11:02:35.232Z,4420.00
2023-03-28T11:03:35.231Z,4596.00
2023-03-28T11:04:35.146Z,4644.00
2023-03-28T11:05:35.118Z,4664.00
2023-03-28T11:06:35.116Z,4668.00
2023-03-28T11:07:35.109Z,4568.00
2023-03-28T11:08:35.082Z,4352.00
2023-03-28T11:09:35.095Z,3996.00
2023-03-28T11:10:35.081Z,3700.00
2023-03-28T11:11:35.045Z,3468.00
2023-03-28T11:12:43.767Z,3212.00
2023-03-28T11:13:35.048Z,3000.00
2023-03-28T11:14:35.043Z,2824.00
2023-03-28T11:15:35.012Z,2688.00
2023-03-28T11:16:35.055Z,2712.00
2023-03-28T11:17:35.250Z,2844.00
2023-03-28T11:18:34.975Z,2896.00
2023-03-28T11:19:34.992Z,2904.00
2023-03-28T11:20:34.951Z,2868.00
2023-03-28T11:21:34.934Z,2832.00
2023-03-28T11:22:34.926Z,2636.00
2023-03-28T11:23:36.108Z,2440.00
2023-03-28T11:24:34.924Z,2524.00
2023-03-28T11:25:34.901Z,2780.00
2023-03-28T11:26:34.883Z,3224.00
2023-03-28T11:27:34.899Z,3616.00
2023-03-28T11:28:34.929Z,3900.00
2023-03-28T11:29:43.095Z,4072.00
2023-03-28T11:30:34.846Z,4260.00
2023-03-28T11:31:34.894Z,4596.00
2023-03-28T11:32:34.921Z,4820.00
2023-03-28T11:33:34.818Z,5084.00
2023-03-28T11:34:34.853Z,5436.00
2023-03-28T11:35:34.854Z,5752.00
2023-03-28T11:36:34.783Z,5972.00
2023-03-28T11:37:34.768Z,6352.00
2023-03-28T11:38:34.752Z,6660.00
2023-03-28T11:39:34.761Z,6904.00
2023-03-28T11:40:34.730Z,7164.00
2023-03-28T11:41:34.726Z,7404.00
2023-03-28T11:42:34.704Z,7628.00
2023-03-28T11:43:34.705Z,7592.00
2023-03-28T11:44:34.716Z,7264.00
2023-03-28T11:45:50.222Z,6968.00
2023-03-28T11:46:34.726Z,6712.00
2023-03-28T11:47:34.721Z,6604.00
2023-03-28T11:48:34.646Z,6488.00
2023-03-28T11:49:34.645Z,6504.00
2023-03-28T11:50:34.612Z,6852.00
2023-03-28T11:51:34.612Z,7320.00
2023-03-28T11:52:36.602Z,7772.00
2023-03-28T11:53:34.582Z,8176.00
2023-03-28T11:54:34.601Z,8376.00
2023-03-28T11:55:34.563Z,8380.00
2023-03-28T11:56:34.549Z,8528.00
2023-03-28T11:57:34.542Z,8632.00
2023-03-28T11:58:34.523Z,9016.00
2023-03-28T11:59:34.544Z,8956.00
2023-03-28T12:00:34.899Z,9104.00
2023-03-28T12:01:34.524Z,9220.00
2023-03-28T12:02:34.537Z,9964.00
2023-03-28T12:03:34.611Z,9020.00
2023-03-28T12:04:34.531Z,8640.00
2023-03-28T12:05:34.452Z,8412.00
2023-03-28T12:06:34.436Z,8608.00
2023-03-28T12:07:34.446Z,7804.00
2023-03-28T12:08:34.415Z,7388.00
2023-03-28T12:09:34.440Z,7808.00
2023-03-28T12:10:34.392Z,8104.00
2023-03-28T12:11:36.675Z,8356.00
2023-03-28T12:12:34.370Z,8168.00
2023-03-28T12:13:41.739Z,7652.00
2023-03-28T12:14:34.388Z,7456.00
2023-03-28T12:15:34.334Z,6544.00
2023-03-28T12:16:34.364Z,6228.00
2023-03-28T12:17:34.373Z,6804.00
2023-03-28T12:18:34.315Z,7168.00
2023-03-28T12:19:34.333Z,6824.00
2023-03-28T12:20:34.289Z,7100.00
2023-03-28T12:21:34.287Z,7400.00
2023-03-28T12:22:34.262Z,7392.00
2023-03-28T12:23:34.262Z,7112.00
2023-03-28T12:24:34.344Z,6672.00
2023-03-28T12:25:34.239Z,5896.00
2023-03-28T12:26:34.218Z,5400.00
2023-03-28T12:27:34.202Z,5000.00
2023-03-28T12:28:34.197Z,4044.00
2023-03-28T12:29:34.216Z,3204.00
2023-03-28T12:30:34.216Z,2616.00
2023-03-28T12:31:34.204Z,2144.00
2023-03-28T12:32:34.179Z,1812.00
2023-03-28T12:33:34.139Z,1444.00
2023-03-28T12:34:34.158Z,1124.00